sensor_id;sensor_type;location;lat;lon;timestamp;P1;durP1;ratioP1;P2;durP2;ratioP2
14231;SDS011;7200;52.194;9.900;2023-04-15T00:00:09;2.70;;;1.97;;
14231;SDS011;7200;52.194;9.900;2023-04-15T00:02:35;1.53;;;1.43;;
14231;SDS011;7200;52.194;9.900;2023-04-15T00:05:01;0.40;;;0.40;;
14231;SDS011;7200;52.194;9.900;2023-04-15T00:07:27;0.50;;;0.50;;
14231;SDS011;7200;52.194;9.900;2023-04-15T00:09:53;0.80;;;0.80;;
14231;SDS011;7200;52.194;9.900;2023-04-15T00:12:21;0.33;;;0.33;;
14231;SDS011;7200;52.194;9.900;2023-04-15T00:14:47;1.10;;;1.10;;
14231;SDS011;7200;52.194;9.900;2023-04-15T00:17:12;0.30;;;0.30;;
14231;SDS011;7200;52.194;9.900;2023-04-15T00:19:38;0.30;;;0.30;;
14231;SDS011;7200;52.194;9.900;2023-04-15T00:22:04;0.40;;;0.40;;
14231;SDS011;7200;52.194;9.900;2023-04-15T00:24:30;0.30;;;0.30;;
14231;SDS011;7200;52.194;9.900;2023-04-15T00:26:55;1.17;;;1.17;;
14231;SDS011;7200;52.194;9.900;2023-04-15T00:29:21;0.67;;;0.67;;
14231;SDS011;7200;52.194;9.900;2023-04-15T00:31:46;2.97;;;2.47;;
14231;SDS011;7200;52.194;9.900;2023-04-15T00:34:12;1.80;;;1.60;;
14231;SDS011;7200;52.194;9.900;2023-04-15T00:36:37;2.27;;;1.27;;
14231;SDS011;7200;52.194;9.900;2023-04-15T00:39:02;1.37;;;1.20;;
14231;SDS011;7200;52.194;9.900;2023-04-15T00:41:29;1.37;;;1.27;;
14231;SDS011;7200;52.194;9.900;2023-04-15T00:43:54;0.83;;;0.83;;
14231;SDS011;7200;52.194;9.900;2023-04-15T00:46:20;1.50;;;1.23;;
14231;SDS011;7200;52.194;9.900;2023-04-15T00:48:46;2.57;;;2.37;;
14231;SDS011;7200;52.194;9.900;2023-04-15T00:51:12;0.30;;;0.30;;
14231;SDS011;7200;52.194;9.900;2023-04-15T00:53:38;1.40;;;1.30;;
14231;SDS011;7200;52.194;9.900;2023-04-15T00:56:04;0.87;;;0.87;;
14231;SDS011;7200;52.194;9.900;2023-04-15T00:58:30;3.03;;;1.90;;
14231;SDS011;7200;52.194;9.900;2023-04-15T01:00:55;0.83;;;0.83;;
14231;SDS011;7200;52.194;9.900;2023-04-15T01:03:21;0.70;;;0.70;;
14231;SDS011;7200;52.194;9.900;2023-04-15T01:05:47;0.73;;;0.50;;
14231;SDS011;7200;52.194;9.900;2023-04-15T01:08:13;0.20;;;0.20;;
14231;SDS011;7200;52.194;9.900;2023-04-15T01:10:39;0.83;;;0.83;;
14231;SDS011;7200;52.194;9.900;2023-04-15T01:13:04;1.93;;;1.60;;
14231;SDS011;7200;52.194;9.900;2023-04-15T01:15:29;1.77;;;1.67;;
14231;SDS011;7200;52.194;9.900;2023-04-15T01:17:56;0.20;;;0.20;;
14231;SDS011;7200;52.194;9.900;2023-04-15T01:20:23;1.57;;;1.47;;
14231;SDS011;7200;52.194;9.900;2023-04-15T01:22:48;0.20;;;0.20;;
14231;SDS011;7200;52.194;9.900;2023-04-15T01:25:18;0.93;;;0.93;;
14231;SDS011;7200;52.194;9.900;2023-04-15T01:27:46;0.50;;;0.50;;
14231;SDS011;7200;52.194;9.900;2023-04-15T01:30:12;2.87;;;2.57;;
14231;SDS011;7200;52.194;9.900;2023-04-15T01:32:37;3.23;;;2.17;;
14231;SDS011;7200;52.194;9.900;2023-04-15T01:35:03;2.10;;;1.90;;
14231;SDS011;7200;52.194;9.900;2023-04-15T01:37:28;0.77;;;0.70;;
14231;SDS011;7200;52.194;9.900;2023-04-15T01:39:54;2.43;;;0.83;;
14231;SDS011;7200;52.194;9.900;2023-04-15T01:42:21;2.27;;;2.07;;
14231;SDS011;7200;52.194;9.900;2023-04-15T01:44:46;3.00;;;2.13;;
14231;SDS011;7200;52.194;9.900;2023-04-15T01:47:12;1.37;;;1.37;;
14231;SDS011;7200;52.194;9.900;2023-04-15T01:49:38;1.93;;;1.60;;
14231;SDS011;7200;52.194;9.900;2023-04-15T01:52:03;2.60;;;2.40;;
14231;SDS011;7200;52.194;9.900;2023-04-15T01:54:28;1.70;;;1.53;;
14231;SDS011;7200;52.194;9.900;2023-04-15T01:56:54;1.70;;;1.60;;
14231;SDS011;7200;52.194;9.900;2023-04-15T01:59:19;2.87;;;2.63;;
14231;SDS011;7200;52.194;9.900;2023-04-15T02:01:44;5.93;;;3.13;;
14231;SDS011;7200;52.194;9.900;2023-04-15T02:04:10;3.40;;;2.50;;
14231;SDS011;7200;52.194;9.900;2023-04-15T02:06:44;0.87;;;0.87;;
14231;SDS011;7200;52.194;9.900;2023-04-15T02:09:10;2.23;;;1.90;;
14231;SDS011;7200;52.194;9.900;2023-04-15T02:11:35;7.73;;;4.83;;
14231;SDS011;7200;52.194;9.900;2023-04-15T02:14:03;2.67;;;2.07;;
14231;SDS011;7200;52.194;9.900;2023-04-15T02:16:30;1.37;;;1.30;;
14231;SDS011;7200;52.194;9.900;2023-04-15T02:18:56;7.77;;;5.23;;
14231;SDS011;7200;52.194;9.900;2023-04-15T02:21:22;3.77;;;3.47;;
14231;SDS011;7200;52.194;9.900;2023-04-15T02:23:47;5.80;;;3.53;;
14231;SDS011;7200;52.194;9.900;2023-04-15T02:26:13;3.60;;;2.93;;
14231;SDS011;7200;52.194;9.900;2023-04-15T02:28:38;2.23;;;2.03;;
14231;SDS011;7200;52.194;9.900;2023-04-15T02:31:06;1.90;;;1.80;;
14231;SDS011;7200;52.194;9.900;2023-04-15T02:33:33;5.07;;;2.30;;
14231;SDS011;7200;52.194;9.900;2023-04-15T02:35:59;4.93;;;3.90;;
14231;SDS011;7200;52.194;9.900;2023-04-15T02:38:24;1.63;;;1.30;;
14231;SDS011;7200;52.194;9.900;2023-04-15T02:40:49;0.40;;;0.40;;
14231;SDS011;7200;52.194;9.900;2023-04-15T02:43:15;3.33;;;1.83;;
14231;SDS011;7200;52.194;9.900;2023-04-15T02:45:44;0.53;;;0.53;;
14231;SDS011;7200;52.194;9.900;2023-04-15T02:48:10;2.87;;;1.23;;
14231;SDS011;7200;52.194;9.900;2023-04-15T02:50:36;2.77;;;2.57;;
14231;SDS011;7200;52.194;9.900;2023-04-15T02:53:05;4.97;;;4.33;;
14231;SDS011;7200;52.194;9.900;2023-04-15T02:55:31;2.60;;;1.70;;
14231;SDS011;7200;52.194;9.900;2023-04-15T02:57:56;3.23;;;2.93;;
14231;SDS011;7200;52.194;9.900;2023-04-15T03:00:25;3.23;;;2.93;;
14231;SDS011;7200;52.194;9.900;2023-04-15T03:02:51;4.83;;;4.20;;
14231;SDS011;7200;52.194;9.900;2023-04-15T03:05:22;6.87;;;5.40;;
14231;SDS011;7200;52.194;9.900;2023-04-15T03:07:49;6.23;;;3.73;;
14231;SDS011;7200;52.194;9.900;2023-04-15T03:10:15;1.03;;;1.03;;
14231;SDS011;7200;52.194;9.900;2023-04-15T03:12:40;5.20;;;3.37;;
14231;SDS011;7200;52.194;9.900;2023-04-15T03:15:05;2.03;;;0.90;;
14231;SDS011;7200;52.194;9.900;2023-04-15T03:17:32;3.57;;;3.27;;
14231;SDS011;7200;52.194;9.900;2023-04-15T03:19:57;0.77;;;0.77;;
14231;SDS011;7200;52.194;9.900;2023-04-15T03:22:22;0.47;;;0.47;;
14231;SDS011;7200;52.194;9.900;2023-04-15T03:24:48;5.70;;;4.43;;
14231;SDS011;7200;52.194;9.900;2023-04-15T03:27:13;7.90;;;6.53;;
14231;SDS011;7200;52.194;9.900;2023-04-15T03:29:38;1.50;;;1.37;;
14231;SDS011;7200;52.194;9.900;2023-04-15T03:32:03;5.80;;;3.10;;
14231;SDS011;7200;52.194;9.900;2023-04-15T03:34:29;0.43;;;0.43;;
14231;SDS011;7200;52.194;9.900;2023-04-15T03:36:54;2.73;;;2.53;;
14231;SDS011;7200;52.194;9.900;2023-04-15T03:39:20;3.23;;;2.93;;
14231;SDS011;7200;52.194;9.900;2023-04-15T03:41:45;0.93;;;0.93;;
14231;SDS011;7200;52.194;9.900;2023-04-15T03:44:11;6.50;;;5.10;;
14231;SDS011;7200;52.194;9.900;2023-04-15T03:46:36;4.73;;;4.33;;
14231;SDS011;7200;52.194;9.900;2023-04-15T03:49:01;14.00;;;10.03;;
14231;SDS011;7200;52.194;9.900;2023-04-15T03:51:27;5.50;;;4.50;;
14231;SDS011;7200;52.194;9.900;2023-04-15T03:53:52;3.63;;;3.30;;
14231;SDS011;7200;52.194;9.900;2023-04-15T03:56:17;7.00;;;3.37;;
14231;SDS011;7200;52.194;9.900;2023-04-15T03:58:43;1.57;;;1.47;;
14231;SDS011;7200;52.194;9.900;2023-04-15T04:01:08;3.37;;;2.80;;
14231;SDS011;7200;52.194;9.900;2023-04-15T04:03:33;5.13;;;3.50;;
14231;SDS011;7200;52.194;9.900;2023-04-15T04:05:58;3.63;;;2.73;;
14231;SDS011;7200;52.194;9.900;2023-04-15T04:08:24;2.67;;;2.47;;
14231;SDS011;7200;52.194;9.900;2023-04-15T04:10:49;6.80;;;5.10;;
14231;SDS011;7200;52.194;9.900;2023-04-15T04:13:14;18.93;;;13.97;;
14231;SDS011;7200;52.194;9.900;2023-04-15T04:15:40;5.47;;;4.40;;
14231;SDS011;7200;52.194;9.900;2023-04-15T04:18:05;4.83;;;4.17;;
14231;SDS011;7200;52.194;9.900;2023-04-15T04:20:31;13.03;;;8.67;;
14231;SDS011;7200;52.194;9.900;2023-04-15T04:22:56;22.83;;;11.90;;
14231;SDS011;7200;52.194;9.900;2023-04-15T04:25:22;8.30;;;5.60;;
14231;SDS011;7200;52.194;9.900;2023-04-15T04:27:48;29.43;;;15.43;;
14231;SDS011;7200;52.194;9.900;2023-04-15T04:30:13;12.43;;;5.43;;
14231;SDS011;7200;52.194;9.900;2023-04-15T04:32:39;18.47;;;10.97;;
14231;SDS011;7200;52.194;9.900;2023-04-15T04:35:04;32.20;;;18.17;;
14231;SDS011;7200;52.194;9.900;2023-04-15T04:37:29;9.23;;;5.67;;
14231;SDS011;7200;52.194;9.900;2023-04-15T04:39:55;22.63;;;11.43;;
14231;SDS011;7200;52.194;9.900;2023-04-15T04:42:20;23.67;;;13.17;;
14231;SDS011;7200;52.194;9.900;2023-04-15T04:44:46;17.57;;;11.67;;
14231;SDS011;7200;52.194;9.900;2023-04-15T04:47:11;4.70;;;4.27;;
14231;SDS011;7200;52.194;9.900;2023-04-15T04:49:37;26.90;;;15.87;;
14231;SDS011;7200;52.194;9.900;2023-04-15T04:52:02;39.07;;;21.70;;
14231;SDS011;7200;52.194;9.900;2023-04-15T04:54:27;29.10;;;15.67;;
14231;SDS011;7200;52.194;9.900;2023-04-15T04:56:54;28.20;;;16.23;;
14231;SDS011;7200;52.194;9.900;2023-04-15T04:59:21;29.03;;;14.50;;
14231;SDS011;7200;52.194;9.900;2023-04-15T05:01:47;21.33;;;14.10;;
14231;SDS011;7200;52.194;9.900;2023-04-15T05:04:12;34.77;;;16.53;;
14231;SDS011;7200;52.194;9.900;2023-04-15T05:06:38;22.10;;;11.17;;
14231;SDS011;7200;52.194;9.900;2023-04-15T05:09:03;33.87;;;14.37;;
14231;SDS011;7200;52.194;9.900;2023-04-15T05:11:28;38.80;;;19.40;;
14231;SDS011;7200;52.194;9.900;2023-04-15T05:13:53;44.70;;;21.70;;
14231;SDS011;7200;52.194;9.900;2023-04-15T05:16:19;29.73;;;14.23;;
14231;SDS011;7200;52.194;9.900;2023-04-15T05:18:44;38.77;;;16.23;;
14231;SDS011;7200;52.194;9.900;2023-04-15T05:21:10;30.40;;;13.87;;
14231;SDS011;7200;52.194;9.900;2023-04-15T05:23:35;19.47;;;9.97;;
14231;SDS011;7200;52.194;9.900;2023-04-15T05:26:01;52.73;;;24.10;;
14231;SDS011;7200;52.194;9.900;2023-04-15T05:28:27;44.43;;;18.47;;
14231;SDS011;7200;52.194;9.900;2023-04-15T05:30:53;45.23;;;21.03;;
14231;SDS011;7200;52.194;9.900;2023-04-15T05:33:18;36.27;;;14.83;;
14231;SDS011;7200;52.194;9.900;2023-04-15T05:35:43;9.20;;;7.00;;
14231;SDS011;7200;52.194;9.900;2023-04-15T05:38:08;44.53;;;21.93;;
14231;SDS011;7200;52.194;9.900;2023-04-15T05:40:34;59.13;;;25.00;;
14231;SDS011;7200;52.194;9.900;2023-04-15T05:42:59;21.57;;;12.00;;
14231;SDS011;7200;52.194;9.900;2023-04-15T05:45:25;46.87;;;22.40;;
14231;SDS011;7200;52.194;9.900;2023-04-15T05:47:51;63.87;;;31.77;;
14231;SDS011;7200;52.194;9.900;2023-04-15T05:50:18;37.83;;;20.23;;
14231;SDS011;7200;52.194;9.900;2023-04-15T05:52:43;49.13;;;23.60;;
14231;SDS011;7200;52.194;9.900;2023-04-15T05:55:10;44.13;;;18.37;;
14231;SDS011;7200;52.194;9.900;2023-04-15T05:57:35;20.77;;;10.63;;
14231;SDS011;7200;52.194;9.900;2023-04-15T06:00:01;32.97;;;16.37;;
14231;SDS011;7200;52.194;9.900;2023-04-15T06:02:29;21.80;;;7.63;;
14231;SDS011;7200;52.194;9.900;2023-04-15T06:04:55;14.17;;;6.80;;
14231;SDS011;7200;52.194;9.900;2023-04-15T06:07:21;25.30;;;14.70;;
14231;SDS011;7200;52.194;9.900;2023-04-15T06:09:46;33.37;;;15.37;;
14231;SDS011;7200;52.194;9.900;2023-04-15T06:12:12;50.53;;;22.27;;
14231;SDS011;7200;52.194;9.900;2023-04-15T06:14:38;14.37;;;8.53;;
14231;SDS011;7200;52.194;9.900;2023-04-15T06:17:04;25.97;;;10.20;;
14231;SDS011;7200;52.194;9.900;2023-04-15T06:19:29;27.00;;;15.13;;
14231;SDS011;7200;52.194;9.900;2023-04-15T06:21:55;35.57;;;17.37;;
14231;SDS011;7200;52.194;9.900;2023-04-15T06:24:22;28.07;;;13.47;;
14231;SDS011;7200;52.194;9.900;2023-04-15T06:26:47;30.37;;;15.43;;
14231;SDS011;7200;52.194;9.900;2023-04-15T06:29:12;23.87;;;14.67;;
14231;SDS011;7200;52.194;9.900;2023-04-15T06:31:38;17.73;;;10.63;;
14231;SDS011;7200;52.194;9.900;2023-04-15T06:34:03;29.23;;;15.93;;
14231;SDS011;7200;52.194;9.900;2023-04-15T06:36:29;36.17;;;20.13;;
14231;SDS011;7200;52.194;9.900;2023-04-15T06:38:54;35.90;;;15.17;;
14231;SDS011;7200;52.194;9.900;2023-04-15T06:41:20;16.90;;;10.33;;
14231;SDS011;7200;52.194;9.900;2023-04-15T06:43:46;12.07;;;9.37;;
14231;SDS011;7200;52.194;9.900;2023-04-15T06:46:11;17.37;;;10.83;;
14231;SDS011;7200;52.194;9.900;2023-04-15T06:48:37;10.67;;;7.47;;
14231;SDS011;7200;52.194;9.900;2023-04-15T06:51:02;35.83;;;19.80;;
14231;SDS011;7200;52.194;9.900;2023-04-15T06:53:28;38.03;;;21.70;;
14231;SDS011;7200;52.194;9.900;2023-04-15T06:55:53;27.30;;;12.90;;
14231;SDS011;7200;52.194;9.900;2023-04-15T06:58:18;25.50;;;16.40;;
14231;SDS011;7200;52.194;9.900;2023-04-15T07:00:44;15.57;;;7.87;;
14231;SDS011;7200;52.194;9.900;2023-04-15T07:03:10;12.63;;;8.67;;
14231;SDS011;7200;52.194;9.900;2023-04-15T07:05:36;19.10;;;12.03;;
14231;SDS011;7200;52.194;9.900;2023-04-15T07:08:02;11.67;;;6.90;;
14231;SDS011;7200;52.194;9.900;2023-04-15T07:10:27;8.30;;;5.60;;
14231;SDS011;7200;52.194;9.900;2023-04-15T07:12:53;21.60;;;13.27;;
14231;SDS011;7200;52.194;9.900;2023-04-15T07:15:18;5.03;;;4.53;;
14231;SDS011;7200;52.194;9.900;2023-04-15T07:17:44;13.27;;;8.63;;
14231;SDS011;7200;52.194;9.900;2023-04-15T07:20:09;21.57;;;10.97;;
14231;SDS011;7200;52.194;9.900;2023-04-15T07:22:35;17.87;;;11.47;;
14231;SDS011;7200;52.194;9.900;2023-04-15T07:25:00;16.97;;;9.80;;
14231;SDS011;7200;52.194;9.900;2023-04-15T07:27:26;18.67;;;10.53;;
14231;SDS011;7200;52.194;9.900;2023-04-15T07:29:51;17.93;;;11.13;;
14231;SDS011;7200;52.194;9.900;2023-04-15T07:32:17;5.30;;;3.80;;
14231;SDS011;7200;52.194;9.900;2023-04-15T07:34:43;16.50;;;9.90;;
14231;SDS011;7200;52.194;9.900;2023-04-15T07:37:08;13.43;;;9.90;;
14231;SDS011;7200;52.194;9.900;2023-04-15T07:39:34;19.67;;;12.77;;
14231;SDS011;7200;52.194;9.900;2023-04-15T07:42:01;6.37;;;4.33;;
14231;SDS011;7200;52.194;9.900;2023-04-15T07:44:26;2.23;;;1.80;;
14231;SDS011;7200;52.194;9.900;2023-04-15T07:46:51;11.23;;;7.20;;
14231;SDS011;7200;52.194;9.900;2023-04-15T07:49:17;4.13;;;3.50;;
14231;SDS011;7200;52.194;9.900;2023-04-15T07:51:43;7.10;;;5.00;;
14231;SDS011;7200;52.194;9.900;2023-04-15T07:54:08;9.87;;;5.70;;
14231;SDS011;7200;52.194;9.900;2023-04-15T07:56:34;16.60;;;8.93;;
14231;SDS011;7200;52.194;9.900;2023-04-15T07:58:59;2.33;;;2.10;;
14231;SDS011;7200;52.194;9.900;2023-04-15T08:01:26;11.63;;;9.37;;
14231;SDS011;7200;52.194;9.900;2023-04-15T08:03:51;12.80;;;9.90;;
14231;SDS011;7200;52.194;9.900;2023-04-15T08:06:17;10.43;;;8.27;;
14231;SDS011;7200;52.194;9.900;2023-04-15T08:08:42;9.20;;;7.13;;
14231;SDS011;7200;52.194;9.900;2023-04-15T08:11:08;19.83;;;11.27;;
14231;SDS011;7200;52.194;9.900;2023-04-15T08:13:33;13.03;;;9.03;;
14231;SDS011;7200;52.194;9.900;2023-04-15T08:16:20;3.83;;;3.50;;
14231;SDS011;7200;52.194;9.900;2023-04-15T08:18:49;15.17;;;12.60;;
14231;SDS011;7200;52.194;9.900;2023-04-15T08:21:15;13.93;;;8.87;;
14231;SDS011;7200;52.194;9.900;2023-04-15T08:23:42;5.63;;;4.23;;
14231;SDS011;7200;52.194;9.900;2023-04-15T08:26:08;8.33;;;7.17;;
14231;SDS011;7200;52.194;9.900;2023-04-15T08:28:33;11.27;;;6.80;;
14231;SDS011;7200;52.194;9.900;2023-04-15T08:30:59;16.97;;;12.30;;
14231;SDS011;7200;52.194;9.900;2023-04-15T08:33:25;6.57;;;4.97;;
14231;SDS011;7200;52.194;9.900;2023-04-15T08:35:50;15.97;;;14.10;;
14231;SDS011;7200;52.194;9.900;2023-04-15T08:38:16;15.33;;;12.77;;
14231;SDS011;7200;52.194;9.900;2023-04-15T08:40:43;11.90;;;9.43;;
14231;SDS011;7200;52.194;9.900;2023-04-15T08:43:10;10.67;;;5.73;;
14231;SDS011;7200;52.194;9.900;2023-04-15T08:45:39;11.93;;;8.33;;
14231;SDS011;7200;52.194;9.900;2023-04-15T08:48:05;7.10;;;5.20;;
14231;SDS011;7200;52.194;9.900;2023-04-15T08:50:33;3.40;;;3.03;;
14231;SDS011;7200;52.194;9.900;2023-04-15T08:52:59;5.33;;;4.83;;
14231;SDS011;7200;52.194;9.900;2023-04-15T08:55:28;9.23;;;7.83;;
14231;SDS011;7200;52.194;9.900;2023-04-15T08:57:58;2.63;;;2.30;;
14231;SDS011;7200;52.194;9.900;2023-04-15T09:00:25;6.13;;;5.43;;
14231;SDS011;7200;52.194;9.900;2023-04-15T09:02:51;7.93;;;5.83;;
14231;SDS011;7200;52.194;9.900;2023-04-15T09:05:16;5.90;;;5.23;;
14231;SDS011;7200;52.194;9.900;2023-04-15T09:07:41;6.40;;;5.70;;
14231;SDS011;7200;52.194;9.900;2023-04-15T09:10:07;2.57;;;2.27;;
14231;SDS011;7200;52.194;9.900;2023-04-15T09:12:34;7.13;;;5.67;;
14231;SDS011;7200;52.194;9.900;2023-04-15T09:15:01;5.90;;;3.83;;
14231;SDS011;7200;52.194;9.900;2023-04-15T09:17:26;7.03;;;5.80;;
14231;SDS011;7200;52.194;9.900;2023-04-15T09:20:06;6.77;;;4.97;;
14231;SDS011;7200;52.194;9.900;2023-04-15T09:22:36;9.60;;;8.57;;
14231;SDS011;7200;52.194;9.900;2023-04-15T09:25:03;7.67;;;5.30;;
14231;SDS011;7200;52.194;9.900;2023-04-15T09:27:28;5.93;;;4.20;;
14231;SDS011;7200;52.194;9.900;2023-04-15T09:29:54;7.47;;;5.97;;
14231;SDS011;7200;52.194;9.900;2023-04-15T09:32:20;4.23;;;3.83;;
14231;SDS011;7200;52.194;9.900;2023-04-15T09:34:47;4.70;;;3.13;;
14231;SDS011;7200;52.194;9.900;2023-04-15T09:37:12;3.27;;;2.97;;
14231;SDS011;7200;52.194;9.900;2023-04-15T09:42:16;6.70;;;5.43;;
14231;SDS011;7200;52.194;9.900;2023-04-15T09:44:48;5.77;;;3.53;;
14231;SDS011;7200;52.194;9.900;2023-04-15T09:47:29;5.80;;;5.00;;
14231;SDS011;7200;52.194;9.900;2023-04-15T09:49:58;6.40;;;5.33;;
14231;SDS011;7200;52.194;9.900;2023-04-15T09:52:25;5.37;;;4.13;;
14231;SDS011;7200;52.194;9.900;2023-04-15T09:54:52;4.73;;;3.60;;
14231;SDS011;7200;52.194;9.900;2023-04-15T09:57:19;0.50;;;0.50;;
14231;SDS011;7200;52.194;9.900;2023-04-15T09:59:45;0.40;;;0.20;;
14231;SDS011;7200;52.194;9.900;2023-04-15T10:02:11;1.73;;;0.97;;
14231;SDS011;7200;52.194;9.900;2023-04-15T10:04:39;4.13;;;3.47;;
14231;SDS011;7200;52.194;9.900;2023-04-15T10:07:05;1.70;;;1.60;;
14231;SDS011;7200;52.194;9.900;2023-04-15T10:09:34;3.60;;;2.97;;
14231;SDS011;7200;52.194;9.900;2023-04-15T10:12:01;5.10;;;3.43;;
14231;SDS011;7200;52.194;9.900;2023-04-15T10:14:28;5.67;;;5.17;;
14231;SDS011;7200;52.194;9.900;2023-04-15T10:16:58;5.63;;;4.17;;
14231;SDS011;7200;52.194;9.900;2023-04-15T10:19:26;7.37;;;6.23;;
14231;SDS011;7200;52.194;9.900;2023-04-15T10:21:53;3.60;;;2.67;;
14231;SDS011;7200;52.194;9.900;2023-04-15T10:24:22;10.40;;;8.20;;
14231;SDS011;7200;52.194;9.900;2023-04-15T10:26:49;13.00;;;9.57;;
14231;SDS011;7200;52.194;9.900;2023-04-15T10:29:15;14.20;;;7.23;;
14231;SDS011;7200;52.194;9.900;2023-04-15T10:31:42;0.70;;;0.70;;
14231;SDS011;7200;52.194;9.900;2023-04-15T10:34:07;13.70;;;8.17;;
14231;SDS011;7200;52.194;9.900;2023-04-15T10:36:33;3.97;;;2.03;;
14231;SDS011;7200;52.194;9.900;2023-04-15T10:38:58;12.13;;;10.17;;
14231;SDS011;7200;52.194;9.900;2023-04-15T10:41:25;7.37;;;5.07;;
14231;SDS011;7200;52.194;9.900;2023-04-15T10:43:56;2.00;;;1.80;;
14231;SDS011;7200;52.194;9.900;2023-04-15T10:49:05;19.80;;;11.50;;
14231;SDS011;7200;52.194;9.900;2023-04-15T10:51:32;9.33;;;6.03;;
14231;SDS011;7200;52.194;9.900;2023-04-15T10:54:01;6.93;;;4.80;;
14231;SDS011;7200;52.194;9.900;2023-04-15T10:56:29;10.17;;;5.10;;
14231;SDS011;7200;52.194;9.900;2023-04-15T10:58:57;2.33;;;2.17;;
14231;SDS011;7200;52.194;9.900;2023-04-15T11:01:26;0.83;;;0.83;;
14231;SDS011;7200;52.194;9.900;2023-04-15T11:04:49;11.00;;;6.73;;
14231;SDS011;7200;52.194;9.900;2023-04-15T11:07:32;10.30;;;7.23;;
14231;SDS011;7200;52.194;9.900;2023-04-15T11:12:45;4.53;;;1.63;;
14231;SDS011;7200;52.194;9.900;2023-04-15T11:15:27;20.30;;;13.90;;
14231;SDS011;7200;52.194;9.900;2023-04-15T11:17:54;24.73;;;13.90;;
14231;SDS011;7200;52.194;9.900;2023-04-15T11:20:20;8.40;;;4.97;;
14231;SDS011;7200;52.194;9.900;2023-04-15T11:22:49;40.10;;;14.53;;
14231;SDS011;7200;52.194;9.900;2023-04-15T11:25:23;3.10;;;2.80;;
14231;SDS011;7200;52.194;9.900;2023-04-15T11:27:49;38.73;;;15.60;;
14231;SDS011;7200;52.194;9.900;2023-04-15T11:30:21;21.63;;;4.43;;
14231;SDS011;7200;52.194;9.900;2023-04-15T11:32:48;31.37;;;12.03;;
14231;SDS011;7200;52.194;9.900;2023-04-15T11:35:15;11.33;;;5.40;;
14231;SDS011;7200;52.194;9.900;2023-04-15T11:37:41;3.33;;;2.43;;
14231;SDS011;7200;52.194;9.900;2023-04-15T11:40:07;68.20;;;24.67;;
14231;SDS011;7200;52.194;9.900;2023-04-15T11:42:33;24.73;;;9.47;;
14231;SDS011;7200;52.194;9.900;2023-04-15T11:45:07;47.50;;;18.60;;
14231;SDS011;7200;52.194;9.900;2023-04-15T11:47:35;35.20;;;12.83;;
14231;SDS011;7200;52.194;9.900;2023-04-15T11:50:16;16.87;;;7.30;;
14231;SDS011;7200;52.194;9.900;2023-04-15T11:52:56;12.23;;;5.40;;
14231;SDS011;7200;52.194;9.900;2023-04-15T11:55:23;47.47;;;16.50;;
14231;SDS011;7200;52.194;9.900;2023-04-15T11:58:04;9.27;;;3.97;;
14231;SDS011;7200;52.194;9.900;2023-04-15T12:00:32;9.50;;;2.93;;
14231;SDS011;7200;52.194;9.900;2023-04-15T12:08:49;12.70;;;6.13;;
14231;SDS011;7200;52.194;9.900;2023-04-15T12:11:15;11.30;;;5.37;;
14231;SDS011;7200;52.194;9.900;2023-04-15T12:13:48;0.47;;;0.47;;
14231;SDS011;7200;52.194;9.900;2023-04-15T12:16:18;0.00;;;0.00;;
14231;SDS011;7200;52.194;9.900;2023-04-15T12:18:44;3.87;;;2.90;;
14231;SDS011;7200;52.194;9.900;2023-04-15T12:21:11;89.00;;;28.33;;
14231;SDS011;7200;52.194;9.900;2023-04-15T12:23:37;2.57;;;1.87;;
14231;SDS011;7200;52.194;9.900;2023-04-15T12:26:06;25.80;;;10.43;;
14231;SDS011;7200;52.194;9.900;2023-04-15T12:28:33;97.50;;;29.37;;
14231;SDS011;7200;52.194;9.900;2023-04-15T12:31:05;13.77;;;6.97;;
14231;SDS011;7200;52.194;9.900;2023-04-15T12:33:32;10.97;;;5.77;;
14231;SDS011;7200;52.194;9.900;2023-04-15T12:35:57;95.23;;;31.03;;
14231;SDS011;7200;52.194;9.900;2023-04-15T12:38:23;12.93;;;7.13;;
14231;SDS011;7200;52.194;9.900;2023-04-15T12:40:48;0.83;;;0.80;;
14231;SDS011;7200;52.194;9.900;2023-04-15T12:43:13;104.77;;;34.90;;
14231;SDS011;7200;52.194;9.900;2023-04-15T12:45:39;87.03;;;27.80;;
14231;SDS011;7200;52.194;9.900;2023-04-15T12:48:04;124.30;;;35.73;;
14231;SDS011;7200;52.194;9.900;2023-04-15T12:50:30;124.23;;;38.60;;
14231;SDS011;7200;52.194;9.900;2023-04-15T12:52:55;86.63;;;27.40;;
14231;SDS011;7200;52.194;9.900;2023-04-15T12:55:20;85.03;;;27.87;;
14231;SDS011;7200;52.194;9.900;2023-04-15T12:57:46;97.87;;;31.73;;
14231;SDS011;7200;52.194;9.900;2023-04-15T13:00:12;105.80;;;33.10;;
14231;SDS011;7200;52.194;9.900;2023-04-15T13:02:38;78.50;;;28.10;;
14231;SDS011;7200;52.194;9.900;2023-04-15T13:05:03;94.63;;;35.03;;
14231;SDS011;7200;52.194;9.900;2023-04-15T13:07:29;101.33;;;30.77;;
14231;SDS011;7200;52.194;9.900;2023-04-15T13:09:54;91.97;;;32.27;;
14231;SDS011;7200;52.194;9.900;2023-04-15T13:12:20;3.33;;;2.90;;
14231;SDS011;7200;52.194;9.900;2023-04-15T13:14:46;6.10;;;3.73;;
14231;SDS011;7200;52.194;9.900;2023-04-15T13:17:11;9.40;;;7.67;;
14231;SDS011;7200;52.194;9.900;2023-04-15T13:19:37;79.67;;;26.97;;
14231;SDS011;7200;52.194;9.900;2023-04-15T13:22:02;3.30;;;2.27;;
14231;SDS011;7200;52.194;9.900;2023-04-15T13:24:28;6.00;;;5.47;;
14231;SDS011;7200;52.194;9.900;2023-04-15T13:26:53;10.13;;;4.73;;
14231;SDS011;7200;52.194;9.900;2023-04-15T13:29:19;23.23;;;9.57;;
14231;SDS011;7200;52.194;9.900;2023-04-15T13:31:44;10.70;;;6.97;;
14231;SDS011;7200;52.194;9.900;2023-04-15T13:34:10;0.70;;;0.70;;
14231;SDS011;7200;52.194;9.900;2023-04-15T13:36:35;46.90;;;20.10;;
14231;SDS011;7200;52.194;9.900;2023-04-15T13:39:01;4.43;;;4.03;;
14231;SDS011;7200;52.194;9.900;2023-04-15T13:41:27;6.00;;;4.97;;
14231;SDS011;7200;52.194;9.900;2023-04-15T13:43:52;4.10;;;3.70;;
14231;SDS011;7200;52.194;9.900;2023-04-15T13:46:17;0.83;;;0.83;;
14231;SDS011;7200;52.194;9.900;2023-04-15T13:48:43;4.23;;;4.03;;
14231;SDS011;7200;52.194;9.900;2023-04-15T13:51:08;9.73;;;8.03;;
14231;SDS011;7200;52.194;9.900;2023-04-15T13:53:33;4.13;;;2.67;;
14231;SDS011;7200;52.194;9.900;2023-04-15T13:56:00;32.43;;;12.87;;
14231;SDS011;7200;52.194;9.900;2023-04-15T13:58:25;19.63;;;8.70;;
14231;SDS011;7200;52.194;9.900;2023-04-15T14:00:50;17.83;;;8.23;;
14231;SDS011;7200;52.194;9.900;2023-04-15T14:03:15;22.53;;;11.33;;
14231;SDS011;7200;52.194;9.900;2023-04-15T14:05:44;1.70;;;1.70;;
14231;SDS011;7200;52.194;9.900;2023-04-15T14:08:09;5.93;;;2.33;;
14231;SDS011;7200;52.194;9.900;2023-04-15T14:10:35;3.07;;;2.97;;
14231;SDS011;7200;52.194;9.900;2023-04-15T14:13:00;1.27;;;1.27;;
14231;SDS011;7200;52.194;9.900;2023-04-15T14:15:25;42.40;;;18.27;;
14231;SDS011;7200;52.194;9.900;2023-04-15T14:17:51;3.70;;;0.33;;
14231;SDS011;7200;52.194;9.900;2023-04-15T14:20:17;7.90;;;4.67;;
14231;SDS011;7200;52.194;9.900;2023-04-15T14:22:42;11.00;;;5.17;;
14231;SDS011;7200;52.194;9.900;2023-04-15T14:25:08;41.57;;;18.77;;
14231;SDS011;7200;52.194;9.900;2023-04-15T14:27:33;14.23;;;7.60;;
14231;SDS011;7200;52.194;9.900;2023-04-15T14:29:58;67.87;;;26.83;;
14231;SDS011;7200;52.194;9.900;2023-04-15T14:32:24;31.43;;;16.87;;
14231;SDS011;7200;52.194;9.900;2023-04-15T14:34:50;19.33;;;9.87;;
14231;SDS011;7200;52.194;9.900;2023-04-15T14:37:15;2.17;;;1.97;;
14231;SDS011;7200;52.194;9.900;2023-04-15T14:39:41;20.97;;;10.50;;
14231;SDS011;7200;52.194;9.900;2023-04-15T14:42:06;10.30;;;5.27;;
14231;SDS011;7200;52.194;9.900;2023-04-15T14:44:31;38.67;;;14.83;;
14231;SDS011;7200;52.194;9.900;2023-04-15T14:46:57;37.97;;;19.80;;
14231;SDS011;7200;52.194;9.900;2023-04-15T14:49:22;1.50;;;1.37;;
14231;SDS011;7200;52.194;9.900;2023-04-15T14:51:47;39.03;;;23.37;;
14231;SDS011;7200;52.194;9.900;2023-04-15T14:54:13;11.77;;;10.03;;
14231;SDS011;7200;52.194;9.900;2023-04-15T14:56:38;13.43;;;8.03;;
14231;SDS011;7200;52.194;9.900;2023-04-15T14:59:03;4.87;;;4.27;;